Time;durP1;ratioP1;P1;durP2;ratioP2;P2;SDS_P1;SDS_P2;PMS_P1;PMS_P2;Temp;Humidity;BMP_temperature;BMP_pressure;BME280_temperature;BME280_humidity;BME280_pressure;Samples;Min_cycle;Max_cycle;Signal;HPM_P1;HPM_P2
2022/12/21 00:02:07;;;;;;;37.53;17.08;;;7.40;99.90;;;;;;5029421;28;20060;-61
2022/12/21 00:04:32;;;;;;;42.85;18.15;;;7.40;99.90;;;;;;5030428;28;20257;-61
2022/12/21 00:06:58;;;;;;;41.58;15.85;;;7.40;99.90;;;;;;5029511;28;20099;-61
2022/12/21 00:09:24;;;;;;;49.78;16.40;;;7.40;99.90;;;;;;5030435;28;20502;-62
2022/12/21 00:11:50;;;;;;;49.63;15.15;;;7.40;99.90;;;;;;5030063;28;20055;-62
2022/12/21 00:14:15;;;;;;;52.90;14.43;;;7.30;99.90;;;;;;5029197;28;20510;-62
2022/12/21 00:16:42;;;;;;;73.30;15.40;;;7.10;99.90;;;;;;5030819;28;20043;-61
2022/12/21 00:19:11;;;;;;;48.20;14.55;;;7.10;99.90;;;;;;5029974;28;20046;-61
2022/12/21 00:21:37;;;;;;;37.73;15.73;;;6.90;99.90;;;;;;5012651;28;20104;-61
2022/12/21 00:24:04;;;;;;;56.97;16.23;;;6.80;99.90;;;;;;5029196;28;20049;-61
2022/12/21 00:26:32;;;;;;;66.80;16.17;;;6.80;99.90;;;;;;5030148;28;20034;-61
2022/12/21 00:28:58;;;;;;;45.20;16.13;;;6.70;99.90;;;;;;5029558;28;20045;-61
2022/12/21 00:31:27;;;;;;;113.45;17.48;;;6.70;99.90;;;;;;5029700;28;20041;-61
2022/12/21 00:33:54;;;;;;;106.95;16.60;;;6.60;99.90;;;;;;5019418;28;20129;-61
2022/12/21 00:36:21;;;;;;;305.95;21.83;;;6.50;99.90;;;;;;5028550;28;20091;-61
2022/12/21 00:38:47;;;;;;;652.80;29.42;;;6.50;99.90;;;;;;5012926;28;20053;-61
2022/12/21 00:41:15;;;;;;;695.03;25.95;;;6.50;99.90;;;;;;5028902;28;20099;-61
2022/12/21 00:43:43;;;;;;;751.60;24.30;;;6.50;99.90;;;;;;5029650;28;20038;-61
2022/12/21 00:46:19;;;;;;;725.13;23.15;;;6.50;99.90;;;;;;5028996;28;20092;-61
2022/12/21 00:48:45;;;;;;;600.70;20.05;;;6.50;99.90;;;;;;5011860;28;20049;-61
2022/12/21 00:51:17;;;;;;;772.60;25.67;;;6.60;99.90;;;;;;5029573;28;20050;-61
2022/12/21 00:53:43;;;;;;;882.17;34.22;;;6.60;99.90;;;;;;5023600;28;20060;-61
2022/12/21 00:56:10;;;;;;;751.10;23.77;;;6.70;99.90;;;;;;5008244;28;20049;-61
2022/12/21 00:58:37;;;;;;;990.92;30.65;;;6.60;99.90;;;;;;5028320;28;20041;-61
2022/12/21 01:01:10;;;;;;;747.15;25.35;;;6.60;99.90;;;;;;5028560;28;20056;-61
2022/12/21 01:03:36;;;;;;;754.78;27.40;;;6.60;99.90;;;;;;5008962;28;20042;-61
2022/12/21 01:06:02;;;;;;;784.67;28.90;;;6.60;99.90;;;;;;4994915;28;20053;-61
2022/12/21 01:08:27;;;;;;;616.75;21.17;;;6.60;99.90;;;;;;5025199;28;20049;-61
2022/12/21 01:11:02;;;;;;;707.08;24.98;;;6.50;99.90;;;;;;5014587;28;20056;-61
2022/12/21 01:13:30;;;;;;;606.78;24.83;;;6.50;99.90;;;;;;5029485;28;20052;-61
2022/12/21 01:15:56;;;;;;;766.22;29.83;;;6.50;99.90;;;;;;5028050;28;20041;-61
2022/12/21 01:18:22;;;;;;;750.35;28.08;;;6.50;99.90;;;;;;5023195;28;20152;-61
2022/12/21 01:20:51;;;;;;;748.10;25.08;;;6.50;99.90;;;;;;5020589;28;20049;-61
2022/12/21 01:23:18;;;;;;;630.95;25.58;;;6.50;99.90;;;;;;5028501;28;20404;-61
2022/12/21 01:25:48;;;;;;;467.13;21.90;;;6.50;99.90;;;;;;5028565;28;20041;-61
2022/12/21 01:28:14;;;;;;;446.55;19.30;;;6.50;99.90;;;;;;5028418;28;20503;-61
2022/12/21 01:30:40;;;;;;;533.10;22.80;;;6.50;99.90;;;;;;5008023;28;20050;-61
2022/12/21 01:33:13;;;;;;;560.75;22.10;;;6.50;99.90;;;;;;5027543;28;20052;-61
2022/12/21 01:35:40;;;;;;;430.45;19.75;;;6.50;99.90;;;;;;5020365;28;20050;-61
2022/12/21 01:38:06;;;;;;;458.38;22.27;;;6.50;99.90;;;;;;5022700;28;20056;-61
2022/12/21 01:40:34;;;;;;;342.67;17.48;;;6.50;99.90;;;;;;5028586;28;20033;-61
2022/12/21 01:43:00;;;;;;;355.77;17.75;;;6.40;99.90;;;;;;5028411;28;20443;-61
2022/12/21 01:45:47;;;;;;;221.82;14.18;;;6.40;99.90;;;;;;5010044;28;20038;-61
2022/12/21 01:48:17;;;;;;;388.52;19.67;;;6.40;99.90;;;;;;5029315;28;20153;-61
2022/12/21 01:50:52;;;;;;;406.00;19.55;;;6.40;99.90;;;;;;5013917;28;20520;-61
2022/12/21 01:53:27;;;;;;;344.23;18.52;;;6.30;99.90;;;;;;5028520;28;20057;-61
2022/12/21 01:55:57;;;;;;;337.65;16.58;;;6.30;99.90;;;;;;5028336;28;20049;-61
2022/12/21 01:58:27;;;;;;;334.10;18.90;;;6.30;99.90;;;;;;5027870;28;20181;-61
2022/12/21 02:00:55;;;;;;;237.13;14.98;;;6.20;99.90;;;;;;5013917;28;20420;-61
2022/12/21 02:03:25;;;;;;;269.77;17.55;;;6.20;99.90;;;;;;5009077;28;20057;-61
2022/12/21 02:06:08;;;;;;;333.45;20.40;;;6.20;99.90;;;;;;5028362;28;20044;-61
2022/12/21 02:08:35;;;;;;;301.23;17.50;;;6.20;99.90;;;;;;5010304;28;20492;-61
2022/12/21 02:11:03;;;;;;;310.63;18.15;;;6.20;99.90;;;;;;4996075;28;20050;-61
2022/12/21 02:13:29;;;;;;;246.25;15.65;;;6.20;99.90;;;;;;5027897;28;20483;-61
2022/12/21 02:16:07;;;;;;;240.55;15.63;;;6.20;99.90;;;;;;5009276;28;20159;-61
2022/12/21 02:19:00;;;;;;;326.23;19.88;;;6.20;99.90;;;;;;5019268;28;20045;-61
2022/12/21 02:21:28;;;;;;;489.90;23.70;;;6.30;99.90;;;;;;5014196;28;20099;-61
2022/12/21 02:24:25;;;;;;;368.90;20.10;;;6.30;99.90;;;;;;5027094;28;20095;-61
2022/12/21 02:27:04;;;;;;;329.90;18.20;;;6.30;99.90;;;;;;5016542;28;20056;-61
2022/12/21 02:29:51;;;;;;;333.20;19.33;;;6.30;99.90;;;;;;5009620;28;20424;-61
2022/12/21 02:32:23;;;;;;;255.32;16.65;;;6.30;99.90;;;;;;5027519;28;20137;-61
2022/12/21 02:34:55;;;;;;;261.15;16.67;;;6.30;99.90;;;;;;5027607;28;20407;-61
2022/12/21 02:37:30;;;;;;;259.95;16.75;;;6.30;99.90;;;;;;5026696;28;20049;-61
2022/12/21 02:40:22;;;;;;;281.70;17.60;;;6.40;99.90;;;;;;5009839;28;20903;-61
2022/12/21 02:46:14;;;;;;;302.15;16.40;;;6.40;99.90;;;;;;5018238;28;20041;-61
2022/12/21 02:48:54;;;;;;;189.38;13.98;;;6.40;99.90;;;;;;5027093;28;20054;-61
2022/12/21 02:51:32;;;;;;;214.10;13.50;;;6.40;99.90;;;;;;5026609;28;20124;-61
2022/12/21 02:53:58;;;;;;;288.98;14.68;;;6.40;99.90;;;;;;5027679;28;20059;-61
2022/12/21 02:56:23;;;;;;;287.10;16.50;;;6.40;99.90;;;;;;5027818;28;20085;-61
2022/12/21 02:58:49;;;;;;;285.90;14.70;;;6.40;99.90;;;;;;5025242;28;20487;-61
2022/12/21 03:01:33;;;;;;;254.98;15.10;;;6.40;99.90;;;;;;5028066;28;20042;-61
2022/12/21 03:04:25;;;;;;;224.88;12.70;;;6.40;99.90;;;;;;5012544;28;20449;-61
2022/12/21 03:07:10;;;;;;;324.70;16.17;;;6.50;99.90;;;;;;5026645;28;20508;-61
2022/12/21 03:09:46;;;;;;;279.27;14.48;;;6.40;99.90;;;;;;5020340;28;20514;-61
2022/12/21 03:12:32;;;;;;;259.15;15.73;;;6.50;99.90;;;;;;5020432;28;20049;-61
2022/12/21 03:15:36;;;;;;;258.25;14.77;;;6.40;99.90;;;;;;5025867;28;20488;-61
2022/12/21 03:18:08;;;;;;;254.40;14.27;;;6.40;99.90;;;;;;4945468;29;20184;-61
2022/12/21 03:20:39;;;;;;;202.18;12.88;;;6.40;99.90;;;;;;5009288;28;20084;-61
2022/12/21 03:23:20;;;;;;;170.95;12.52;;;6.40;99.90;;;;;;5026946;28;20068;-61
2022/12/21 03:26:02;;;;;;;263.60;16.58;;;6.50;99.90;;;;;;5025751;28;20458;-61
2022/12/21 03:28:32;;;;;;;264.35;16.88;;;6.40;99.90;;;;;;5015360;28;20380;-61
2022/12/21 03:31:03;;;;;;;354.77;18.70;;;6.50;99.90;;;;;;5007995;28;20406;-61
2022/12/21 03:33:34;;;;;;;287.23;17.60;;;6.40;99.90;;;;;;5025968;28;20635;-61
2022/12/21 03:36:12;;;;;;;246.68;15.80;;;6.40;99.90;;;;;;5027074;28;20037;-61
2022/12/21 03:39:02;;;;;;;202.82;12.95;;;6.40;99.90;;;;;;5026020;28;20491;-61
2022/12/21 03:41:35;;;;;;;147.38;13.18;;;6.40;99.90;;;;;;5025754;28;20048;-61
2022/12/21 03:44:08;;;;;;;165.93;13.90;;;6.40;99.90;;;;;;5026547;28;20171;-61
2022/12/21 03:46:44;;;;;;;248.65;16.55;;;6.40;99.90;;;;;;5026147;28;20052;-61
2022/12/21 03:49:18;;;;;;;191.93;14.05;;;6.40;99.90;;;;;;5026759;28;20529;-61
2022/12/21 03:51:55;;;;;;;230.05;14.48;;;6.40;99.90;;;;;;5025802;28;20433;-61
2022/12/21 03:54:58;;;;;;;124.70;10.77;;;6.40;99.90;;;;;;5026878;28;20061;-61
2022/12/21 03:57:26;;;;;;;161.45;11.48;;;6.30;99.90;;;;;;5018438;28;20391;-61
2022/12/21 03:59:55;;;;;;;216.82;13.27;;;6.30;99.90;;;;;;5025286;28;20083;-61
2022/12/21 04:02:37;;;;;;;130.20;10.30;;;6.30;99.90;;;;;;5026680;28;20167;-61
2022/12/21 04:05:38;;;;;;;123.00;10.23;;;6.30;99.90;;;;;;5026080;28;20502;-61
2022/12/21 04:08:04;;;;;;;148.35;10.00;;;6.30;99.90;;;;;;4922832;28;20476;-61
2022/12/21 04:10:30;;;;;;;179.52;11.73;;;6.30;99.90;;;;;;4993132;28;20498;-61
2022/12/21 04:12:55;;;;;;;266.70;12.43;;;6.20;99.90;;;;;;5007465;28;20045;-61
2022/12/21 04:15:25;;;;;;;209.88;11.95;;;6.20;99.90;;;;;;5027149;28;20041;-61
2022/12/21 04:17:52;;;;;;;201.25;10.60;;;6.20;99.90;;;;;;5026105;28;20076;-61
2022/12/21 04:20:23;;;;;;;224.77;10.95;;;6.20;99.90;;;;;;5026116;28;20045;-61
2022/12/21 04:28:32;;;;;;;328.70;13.82;;;6.20;99.90;;;;;;5027627;28;20103;-61
2022/12/21 04:31:00;;;;;;;280.70;9.80;;;6.10;99.90;;;;;;5029251;28;20053;-61
2022/12/21 04:33:27;;;;;;;252.13;11.85;;;6.10;99.90;;;;;;5029674;28;20041;-61
2022/12/21 04:38:44;;;;;;;273.00;11.05;;;6.10;99.90;;;;;;5027081;28;20064;-61
2022/12/21 04:41:10;;;;;;;243.70;11.80;;;6.10;99.90;;;;;;5029776;28;20419;-61
2022/12/21 04:43:37;;;;;;;204.98;9.18;;;6.10;99.90;;;;;;5029348;28;20042;-61
2022/12/21 04:46:06;;;;;;;187.90;9.30;;;6.00;99.90;;;;;;5011526;28;20099;-61
2022/12/21 04:48:32;;;;;;;153.57;8.32;;;6.00;99.90;;;;;;5011385;28;20083;-61
2022/12/21 04:51:07;;;;;;;167.65;8.38;;;6.00;99.90;;;;;;5028798;28;20049;-61
2022/12/21 04:53:34;;;;;;;197.82;9.57;;;6.00;99.90;;;;;;5011985;28;20048;-61
2022/12/21 04:56:00;;;;;;;169.98;9.65;;;6.00;99.90;;;;;;5010628;28;20495;-61
2022/12/21 04:58:26;;;;;;;237.35;11.73;;;6.00;99.90;;;;;;5029407;28;20049;-61
2022/12/21 05:00:52;;;;;;;225.65;10.00;;;6.00;99.90;;;;;;5029257;28;20049;-61
2022/12/21 05:03:19;;;;;;;291.30;12.80;;;6.00;99.90;;;;;;5011215;28;20053;-61
2022/12/21 05:05:45;;;;;;;268.98;11.40;;;6.00;99.90;;;;;;5029812;28;20060;-61
2022/12/21 05:08:12;;;;;;;199.02;9.23;;;6.00;99.90;;;;;;5007415;28;20373;-60
2022/12/21 05:10:38;;;;;;;287.20;12.50;;;6.00;99.90;;;;;;5015029;28;20057;-61
2022/12/21 05:13:04;;;;;;;344.40;14.70;;;6.00;99.90;;;;;;5028199;28;20411;-60
2022/12/21 05:15:34;;;;;;;229.07;10.68;;;6.10;99.90;;;;;;5011668;28;20052;-61
2022/12/21 05:17:59;;;;;;;259.33;13.23;;;6.00;99.90;;;;;;5028762;28;20045;-61
2022/12/21 05:20:25;;;;;;;252.85;11.02;;;6.10;99.90;;;;;;5029078;28;20480;-60
2022/12/21 05:22:51;;;;;;;260.73;11.63;;;6.00;99.90;;;;;;5029326;28;20037;-61
2022/12/21 05:25:17;;;;;;;196.75;9.95;;;6.10;99.90;;;;;;5006786;28;20064;-60
2022/12/21 05:27:43;;;;;;;233.95;11.85;;;6.10;99.90;;;;;;5007228;28;20038;-60
2022/12/21 05:30:09;;;;;;;242.40;11.85;;;6.10;99.90;;;;;;5027848;28;20042;-60
2022/12/21 05:32:35;;;;;;;186.23;8.82;;;6.10;99.90;;;;;;5028697;28;20046;-60
2022/12/21 05:35:01;;;;;;;203.40;9.93;;;6.10;99.90;;;;;;5027734;28;20041;-61
2022/12/21 05:37:27;;;;;;;258.45;11.98;;;6.10;99.90;;;;;;5010566;28;20358;-60
2022/12/21 05:39:53;;;;;;;344.08;15.70;;;6.10;99.90;;;;;;5027919;28;20421;-60
2022/12/21 05:42:19;;;;;;;265.17;13.60;;;6.10;99.90;;;;;;5028373;28;20121;-60
2022/12/21 05:44:44;;;;;;;269.55;13.70;;;6.10;99.90;;;;;;5028389;28;20041;-60
2022/12/21 05:47:10;;;;;;;233.32;11.35;;;6.10;99.90;;;;;;4993411;28;20080;-60
2022/12/21 05:49:36;;;;;;;148.57;9.25;;;6.10;99.90;;;;;;5011382;28;20136;-60
2022/12/21 05:52:01;;;;;;;148.80;11.65;;;6.20;99.90;;;;;;5028127;28;20423;-60
2022/12/21 05:54:27;;;;;;;161.95;9.88;;;6.10;99.90;;;;;;5028804;28;20056;-60
2022/12/21 05:56:53;;;;;;;168.88;10.20;;;6.20;99.90;;;;;;5027124;28;20053;-61
2022/12/21 05:59:19;;;;;;;170.85;10.77;;;6.20;99.90;;;;;;5018904;28;20042;-60
2022/12/21 06:01:45;;;;;;;220.73;12.73;;;6.20;99.90;;;;;;5010350;28;20080;-61
2022/12/21 06:04:11;;;;;;;203.90;11.07;;;6.10;99.90;;;;;;5009991;28;20546;-60
2022/12/21 06:06:37;;;;;;;160.32;9.00;;;6.10;99.90;;;;;;5020747;28;20384;-60
2022/12/21 06:09:03;;;;;;;205.50;11.60;;;6.10;99.90;;;;;;5007431;28;20055;-60
2022/12/21 06:11:29;;;;;;;137.30;8.88;;;6.10;99.90;;;;;;5016861;28;20087;-60
2022/12/21 06:13:55;;;;;;;278.52;12.13;;;6.10;99.90;;;;;;5027743;28;20522;-60
2022/12/21 06:16:23;;;;;;;179.18;9.68;;;6.10;99.90;;;;;;5027159;28;20495;-60
2022/12/21 06:18:49;;;;;;;212.80;10.45;;;6.10;99.90;;;;;;5028221;28;20104;-60
2022/12/21 06:21:16;;;;;;;131.75;8.95;;;6.10;99.90;;;;;;5027519;28;20045;-60
2022/12/21 06:23:43;;;;;;;145.88;9.20;;;6.10;99.90;;;;;;5010659;28;20045;-60
2022/12/21 06:26:12;;;;;;;191.77;10.38;;;6.10;99.90;;;;;;5027312;28;20041;-60
2022/12/21 06:28:38;;;;;;;207.05;12.10;;;6.10;99.90;;;;;;5027650;28;20045;-60
2022/12/21 06:31:07;;;;;;;184.25;11.15;;;6.10;99.90;;;;;;5008755;28;20052;-61
2022/12/21 06:33:33;;;;;;;183.30;10.70;;;6.10;99.90;;;;;;5027487;28;20050;-60
2022/12/21 06:35:59;;;;;;;163.65;10.52;;;6.10;99.90;;;;;;5027471;28;20040;-61
2022/12/21 06:38:26;;;;;;;202.50;10.60;;;6.00;99.90;;;;;;4989697;28;20085;-60
2022/12/21 06:40:57;;;;;;;120.43;8.32;;;6.10;99.90;;;;;;5019661;28;20065;-61
2022/12/21 06:43:28;;;;;;;156.00;10.73;;;6.10;99.90;;;;;;5026565;28;20198;-60
2022/12/21 06:46:01;;;;;;;176.27;11.63;;;6.10;99.90;;;;;;5027732;28;20053;-60
2022/12/21 06:48:29;;;;;;;216.85;12.07;;;6.10;99.90;;;;;;5026848;28;20120;-60
2022/12/21 06:50:57;;;;;;;208.80;12.65;;;6.10;99.90;;;;;;5026732;28;20077;-60
2022/12/21 06:53:24;;;;;;;170.13;13.45;;;6.10;99.90;;;;;;5026859;28;20045;-60
2022/12/21 06:55:57;;;;;;;191.90;12.88;;;6.10;99.90;;;;;;5009744;28;20064;-60
2022/12/21 06:58:23;;;;;;;267.17;15.98;;;6.10;99.90;;;;;;5027275;28;20209;-60
2022/12/21 07:00:49;;;;;;;281.10;15.90;;;6.10;99.90;;;;;;5026932;28;20419;-61
2022/12/21 07:03:15;;;;;;;250.90;14.57;;;6.10;99.90;;;;;;5009381;28;20062;-61
2022/12/21 07:05:41;;;;;;;110.38;9.60;;;6.10;99.90;;;;;;5026218;28;20045;-61
2022/12/21 07:08:07;;;;;;;185.23;13.43;;;6.10;99.90;;;;;;5027614;28;20049;-61
2022/12/21 07:10:38;;;;;;;218.13;14.52;;;6.20;99.90;;;;;;5012176;28;20053;-61
2022/12/21 07:13:04;;;;;;;254.65;15.27;;;6.20;99.90;;;;;;5026728;28;20127;-61
2022/12/21 07:15:33;;;;;;;204.80;13.75;;;6.20;99.90;;;;;;5009452;28;20049;-60
2022/12/21 07:17:59;;;;;;;262.42;15.05;;;6.20;99.90;;;;;;5026296;28;20052;-60
2022/12/21 07:20:25;;;;;;;314.80;18.20;;;6.20;99.90;;;;;;5027254;28;20049;-61
2022/12/21 07:22:50;;;;;;;244.88;16.17;;;6.20;99.90;;;;;;5026212;28;20084;-60
2022/12/21 07:25:17;;;;;;;307.10;18.17;;;6.20;99.90;;;;;;5009912;28;20041;-61
2022/12/21 07:27:42;;;;;;;249.50;16.73;;;6.20;99.90;;;;;;5026165;28;20049;-61
2022/12/21 07:30:08;;;;;;;316.75;16.85;;;6.20;99.90;;;;;;5003500;28;20050;-60
2022/12/21 07:32:34;;;;;;;258.50;16.25;;;6.20;99.90;;;;;;5026537;28;20080;-60
2022/12/21 07:35:00;;;;;;;278.00;17.58;;;6.20;99.90;;;;;;5026484;28;20080;-61
2022/12/21 07:37:26;;;;;;;364.83;21.45;;;6.20;99.90;;;;;;4989285;28;20442;-61
2022/12/21 07:39:52;;;;;;;337.80;19.13;;;6.30;99.90;;;;;;5006158;28;20046;-61
2022/12/21 07:42:17;;;;;;;253.35;18.05;;;6.20;99.90;;;;;;5009195;28;20056;-61
2022/12/21 07:44:44;;;;;;;293.08;21.92;;;6.30;99.90;;;;;;5025693;28;20052;-61
2022/12/21 07:47:10;;;;;;;239.40;17.88;;;6.30;99.90;;;;;;5026951;28;20049;-61
2022/12/21 07:49:36;;;;;;;195.82;17.70;;;6.30;99.90;;;;;;5026314;28;20042;-61
2022/12/21 07:52:01;;;;;;;175.95;17.55;;;6.30;99.90;;;;;;5019269;28;20038;-61
2022/12/21 07:54:27;;;;;;;193.57;16.48;;;6.30;99.90;;;;;;5026752;28;20092;-61
2022/12/21 07:56:54;;;;;;;297.02;19.15;;;6.30;99.90;;;;;;5025469;28;20042;-61
2022/12/21 07:59:20;;;;;;;264.42;20.67;;;6.30;99.90;;;;;;5006088;28;20444;-61
2022/12/21 08:01:45;;;;;;;184.15;18.08;;;6.30;99.90;;;;;;5021716;28;20163;-61
2022/12/21 08:04:11;;;;;;;258.50;23.02;;;6.30;99.90;;;;;;5012987;28;20037;-61
2022/12/21 08:06:37;;;;;;;295.00;21.92;;;6.40;99.90;;;;;;5028723;28;20119;-61
2022/12/21 08:09:03;;;;;;;237.15;20.38;;;6.40;99.90;;;;;;5011745;28;20046;-61
2022/12/21 08:11:29;;;;;;;276.95;21.33;;;6.40;99.90;;;;;;5003902;28;20127;-61
2022/12/21 08:13:56;;;;;;;220.25;17.67;;;6.40;99.90;;;;;;4998815;28;20508;-61
2022/12/21 08:16:22;;;;;;;449.80;28.30;;;6.40;99.90;;;;;;5020081;28;20156;-61
2022/12/21 08:18:48;;;;;;;209.73;19.52;;;6.40;99.90;;;;;;5021847;28;20383;-61
2022/12/21 08:21:15;;;;;;;260.27;22.00;;;6.30;99.90;;;;;;5028456;28;20045;-61
2022/12/21 08:23:41;;;;;;;303.27;22.67;;;6.40;99.90;;;;;;5011548;28;20052;-61
2022/12/21 08:26:11;;;;;;;248.68;21.75;;;6.40;99.90;;;;;;5027190;28;20165;-61
2022/12/21 08:28:38;;;;;;;276.20;22.50;;;6.40;99.90;;;;;;5011990;28;20049;-61
2022/12/21 08:31:09;;;;;;;208.85;20.10;;;6.40;99.90;;;;;;5004177;28;20391;-61
2022/12/21 08:33:35;;;;;;;201.05;18.30;;;6.50;99.90;;;;;;5027149;28;20057;-61
2022/12/21 08:36:01;;;;;;;275.73;21.08;;;6.50;99.90;;;;;;5003054;28;20048;-61
2022/12/21 08:38:27;;;;;;;247.85;19.02;;;6.50;99.90;;;;;;5016193;28;20053;-61
2022/12/21 08:40:53;;;;;;;296.42;21.92;;;6.50;99.90;;;;;;5009345;28;20392;-61
2022/12/21 08:43:19;;;;;;;338.80;26.35;;;6.50;99.90;;;;;;5015432;28;20061;-61
2022/12/21 08:45:46;;;;;;;285.20;24.15;;;6.50;99.90;;;;;;5019345;28;20064;-61
2022/12/21 08:48:11;;;;;;;447.85;29.58;;;6.60;99.90;;;;;;5016865;28;20042;-61
2022/12/21 08:50:37;;;;;;;287.55;23.95;;;6.60;99.90;;;;;;5011445;28;20052;-61
2022/12/21 08:53:03;;;;;;;386.45;25.88;;;6.60;99.90;;;;;;5011020;28;20033;-61
2022/12/21 08:55:30;;;;;;;419.63;30.15;;;6.60;99.90;;;;;;5011272;28;20046;-61
2022/12/21 08:57:57;;;;;;;494.15;30.05;;;6.60;99.90;;;;;;5020935;28;20423;-61
2022/12/21 09:00:24;;;;;;;462.02;26.90;;;6.60;99.90;;;;;;5029882;28;20042;-61
2022/12/21 09:02:49;;;;;;;544.88;29.55;;;6.60;99.90;;;;;;4993580;28;20048;-61
2022/12/21 09:05:15;;;;;;;383.23;26.73;;;6.60;99.90;;;;;;5016254;28;20033;-61
2022/12/21 09:07:41;;;;;;;400.80;23.65;;;6.60;99.90;;;;;;5011256;28;20064;-61
2022/12/21 09:10:07;;;;;;;479.08;29.13;;;6.60;99.90;;;;;;5006430;28;20461;-61
2022/12/21 09:12:34;;;;;;;544.83;31.83;;;6.70;99.90;;;;;;5028971;28;20065;-61
2022/12/21 09:14:59;;;;;;;380.17;26.27;;;6.70;99.90;;;;;;5020087;28;20419;-61
2022/12/21 09:17:25;;;;;;;413.50;29.15;;;6.80;99.90;;;;;;5012422;28;20396;-61
2022/12/21 09:19:52;;;;;;;381.30;30.17;;;6.80;99.90;;;;;;5009646;28;20045;-61
2022/12/21 09:22:18;;;;;;;475.35;32.85;;;6.90;99.90;;;;;;5017765;28;20123;-61
2022/12/21 09:24:44;;;;;;;448.48;34.17;;;6.90;99.90;;;;;;5019164;28;20042;-61
2022/12/21 09:27:11;;;;;;;301.15;27.92;;;7.00;99.90;;;;;;5017821;28;20092;-61
2022/12/21 09:29:37;;;;;;;391.33;31.52;;;7.00;99.90;;;;;;5018792;28;20053;-61
2022/12/21 09:32:03;;;;;;;247.05;28.48;;;7.00;99.90;;;;;;5020899;28;20049;-61
2022/12/21 09:34:29;;;;;;;155.85;24.55;;;7.10;99.90;;;;;;5026370;28;20041;-61
2022/12/21 09:36:54;;;;;;;247.05;29.00;;;7.10;99.90;;;;;;5013778;28;20038;-61
2022/12/21 09:39:20;;;;;;;175.93;28.42;;;7.10;99.90;;;;;;5019509;28;20061;-61
2022/12/21 09:42:12;;;;;;;202.25;28.48;;;7.10;99.90;;;;;;4990491;28;20099;-61
2022/12/21 09:45:19;;;;;;;211.95;30.15;;;7.20;99.90;;;;;;5023757;28;20059;-61
2022/12/21 09:47:53;;;;;;;165.43;26.05;;;7.20;99.90;;;;;;5028847;28;20443;-61
2022/12/21 09:50:48;;;;;;;133.38;25.05;;;7.20;99.90;;;;;;5001557;28;20380;-61
2022/12/21 09:53:31;;;;;;;229.70;28.73;;;7.20;99.90;;;;;;5021771;28;20514;-61
2022/12/21 09:55:59;;;;;;;162.90;25.50;;;7.20;99.90;;;;;;5028729;28;20057;-61
2022/12/21 09:58:40;;;;;;;141.70;22.75;;;7.20;99.90;;;;;;5027436;28;20045;-61
2022/12/21 10:01:28;;;;;;;116.80;22.33;;;7.30;99.90;;;;;;5027662;28;20045;-61
2022/12/21 10:04:30;;;;;;;98.50;19.50;;;7.30;99.90;;;;;;4993950;28;20457;-61
2022/12/21 10:07:14;;;;;;;89.28;19.02;;;7.30;99.90;;;;;;5023561;28;20051;-61
2022/12/21 10:09:58;;;;;;;77.82;16.70;;;7.30;99.90;;;;;;5023259;28;20126;-61
2022/12/21 10:13:05;;;;;;;84.20;18.73;;;7.30;99.90;;;;;;5027767;28;20041;-61
2022/12/21 10:16:01;;;;;;;100.95;21.50;;;7.30;99.90;;;;;;5016083;28;20064;-61
2022/12/21 10:18:36;;;;;;;86.85;19.52;;;7.20;99.90;;;;;;5019451;28;20045;-61
2022/12/21 10:21:16;;;;;;;76.75;17.80;;;7.20;99.90;;;;;;5018571;28;20037;-61
2022/12/21 10:23:51;;;;;;;92.93;20.02;;;7.30;99.90;;;;;;5024264;28;20521;-61
2022/12/21 10:26:22;;;;;;;85.70;18.58;;;7.30;99.90;;;;;;5021964;28;20187;-61
2022/12/21 10:29:17;;;;;;;83.82;19.67;;;7.30;99.90;;;;;;4999055;28;20076;-61
2022/12/21 10:31:45;;;;;;;119.47;21.40;;;7.30;99.90;;;;;;5020281;28;20549;-61
2022/12/21 10:34:19;;;;;;;95.78;21.65;;;7.40;99.90;;;;;;5018436;28;20034;-61
2022/12/21 10:36:47;;;;;;;107.40;22.88;;;7.40;99.90;;;;;;5005646;28;20056;-61
2022/12/21 10:39:16;;;;;;;102.85;22.42;;;7.50;99.90;;;;;;4995597;28;20517;-61
2022/12/21 10:41:47;;;;;;;105.10;21.83;;;7.50;99.90;;;;;;5010578;28;20139;-61
2022/12/21 10:44:14;;;;;;;90.40;20.05;;;7.50;99.90;;;;;;5027226;28;20455;-61
2022/12/21 10:46:39;;;;;;;91.65;21.67;;;7.50;99.90;;;;;;5024085;28;20057;-61
2022/12/21 10:49:15;;;;;;;62.78;15.38;;;7.50;99.90;;;;;;5021189;28;20034;-61
2022/12/21 10:51:40;;;;;;;74.88;18.23;;;7.50;99.90;;;;;;5016239;28;20057;-61
2022/12/21 10:54:09;;;;;;;113.13;23.58;;;7.50;99.90;;;;;;5022869;28;20475;-61
2022/12/21 10:56:49;;;;;;;78.90;19.85;;;7.50;99.90;;;;;;5017130;28;20079;-62
2022/12/21 10:59:21;;;;;;;94.38;22.23;;;7.60;99.90;;;;;;5016094;28;20042;-61
2022/12/21 11:01:48;;;;;;;91.35;22.40;;;7.60;99.90;;;;;;5015102;28;20212;-61
2022/12/21 11:04:15;;;;;;;104.75;25.13;;;7.60;99.90;;;;;;5008866;28;20446;-61
2022/12/21 11:07:01;;;;;;;107.78;26.02;;;7.60;99.90;;;;;;5008565;28;20049;-61
2022/12/21 11:09:40;;;;;;;107.03;26.10;;;7.60;99.90;;;;;;5020821;28;20042;-61
2022/12/21 11:12:23;;;;;;;103.05;26.40;;;7.70;99.90;;;;;;5022642;28;20052;-61
2022/12/21 11:14:49;;;;;;;122.75;29.45;;;7.70;99.90;;;;;;5002973;28;20159;-61
2022/12/21 11:17:19;;;;;;;99.72;26.30;;;7.80;99.90;;;;;;5008126;28;20064;-61
2022/12/21 11:19:45;;;;;;;79.50;22.38;;;7.70;99.90;;;;;;5024756;28;20096;-61
2022/12/21 11:22:14;;;;;;;108.18;27.63;;;7.80;99.90;;;;;;5026376;28;20071;-61
2022/12/21 11:24:43;;;;;;;99.93;26.80;;;7.80;99.90;;;;;;5008054;28;20099;-61
2022/12/21 11:27:11;;;;;;;83.15;24.25;;;7.80;99.90;;;;;;5025772;28;20056;-61
2022/12/21 11:29:56;;;;;;;92.22;24.20;;;7.90;99.90;;;;;;5025841;28;20034;-61
2022/12/21 11:32:22;;;;;;;82.95;22.98;;;8.00;99.90;;;;;;5017678;28;20050;-61
2022/12/21 11:34:50;;;;;;;92.32;24.63;;;8.00;99.90;;;;;;5013522;28;20049;-61
2022/12/21 11:37:45;;;;;;;80.20;22.92;;;8.10;99.90;;;;;;5025282;28;20101;-61
2022/12/21 11:40:17;;;;;;;72.68;20.52;;;8.20;99.90;;;;;;4993485;28;20085;-61
2022/12/21 11:42:51;;;;;;;71.00;21.38;;;8.20;99.90;;;;;;5029159;28;20049;-61
2022/12/21 11:45:17;;;;;;;43.90;14.27;;;8.10;99.90;;;;;;5031281;28;20427;-61
2022/12/21 11:48:15;;;;;;;63.70;18.55;;;8.00;99.90;;;;;;4995881;28;20114;-61
2022/12/21 11:51:01;;;;;;;65.45;18.15;;;8.00;99.90;;;;;;5020448;28;20053;-61
2022/12/21 11:53:27;;;;;;;58.55;20.25;;;8.00;99.90;;;;;;4996204;28;20045;-61
2022/12/21 11:56:11;;;;;;;75.05;20.83;;;8.10;99.90;;;;;;5008919;28;20450;-61
2022/12/21 11:59:27;;;;;;;62.47;19.10;;;8.10;99.90;;;;;;5023093;28;20389;-61
2022/12/21 12:02:12;;;;;;;56.17;18.83;;;8.10;99.90;;;;;;4990334;28;20065;-61
2022/12/21 12:05:00;;;;;;;76.53;20.98;;;8.10;99.90;;;;;;5019254;28;20080;-61
2022/12/21 12:07:42;;;;;;;60.22;19.40;;;8.00;99.90;;;;;;5018711;28;20124;-61
2022/12/21 12:10:13;;;;;;;55.65;18.52;;;8.00;99.90;;;;;;5020251;28;20142;-61
2022/12/21 12:13:08;;;;;;;61.95;18.58;;;8.00;99.90;;;;;;5029843;28;20088;-61
2022/12/21 12:15:47;;;;;;;63.72;20.75;;;8.00;99.90;;;;;;5012097;28;20396;-61
2022/12/21 12:18:30;;;;;;;68.32;21.63;;;8.00;99.90;;;;;;5029605;28;20049;-61
2022/12/21 12:21:30;;;;;;;56.05;20.30;;;8.00;99.90;;;;;;5028749;28;20041;-61
2022/12/21 12:24:18;;;;;;;57.50;19.00;;;8.00;99.90;;;;;;5024903;28;20083;-61
2022/12/21 12:27:11;;;;;;;72.45;20.92;;;8.00;99.90;;;;;;4998890;28;20472;-61
2022/12/21 12:29:55;;;;;;;59.10;19.70;;;8.00;99.90;;;;;;5009633;28;20065;-61
2022/12/21 12:32:58;;;;;;;56.88;19.92;;;8.10;99.90;;;;;;5030133;28;20091;-61
2022/12/21 12:36:05;;;;;;;65.93;20.85;;;8.10;99.90;;;;;;5021833;28;20072;-61
2022/12/21 12:38:48;;;;;;;49.25;16.63;;;8.10;99.90;;;;;;5025644;28;20151;-61
2022/12/21 12:41:37;;;;;;;69.90;21.20;;;8.20;99.90;;;;;;5017972;28;20061;-61
2022/12/21 12:44:42;;;;;;;66.72;19.35;;;8.20;99.90;;;;;;5023891;28;20046;-61
2022/12/21 12:47:21;;;;;;;57.03;19.80;;;8.20;99.90;;;;;;5009580;28;20054;-60
2022/12/21 12:50:19;;;;;;;65.78;19.25;;;8.30;99.90;;;;;;5009577;28;20567;-61
2022/12/21 12:52:52;;;;;;;70.23;19.40;;;8.30;99.90;;;;;;5016324;28;20049;-61
2022/12/21 12:55:38;;;;;;;55.40;19.27;;;8.30;99.90;;;;;;5012485;28;20129;-61
2022/12/21 12:58:29;;;;;;;60.75;20.58;;;8.40;99.90;;;;;;5002956;28;20049;-61
2022/12/21 13:01:04;;;;;;;62.42;20.00;;;8.40;99.90;;;;;;5023207;28;20561;-61
2022/12/21 13:03:42;;;;;;;56.17;18.38;;;8.50;99.90;;;;;;5013877;28;20404;-61
2022/12/21 13:06:37;;;;;;;56.80;18.42;;;8.50;99.90;;;;;;5019374;28;20128;-61
2022/12/21 13:09:10;;;;;;;56.78;19.58;;;8.60;99.90;;;;;;5024384;28;20578;-61